LTCK/MSR METAR and TAF weather

Enter ICAO airport designator
Station Type Date Time Source
LTCK METAR 2019/11/18 11:50 UTC NOAA

LTCK 181150Z 24006KT CAVOK 12/M11 Q1023


Station Type Date Time Source
LTCK Decoded METAR 2019/11/18 11:50 UTC NOAA

Mus Tur-Afb , Turkey (LTCK) 38-45N 041-40E
Nov 18, 2019 - 06:50 AM EST / 2019.11.18 1150 UTC
Wind: from the WSW (240 degrees) at 7 MPH (6 KT):0
Visibility: greater than 7 mile(s):0
Temperature: 53 F (12 C)
Dew Point: 12 F (-11 C)
Relative Humidity: 18%
Pressure (altimeter): 30.21 in. Hg (1023 hPa)
ob: LTCK 181150Z 24006KT CAVOK 12/M11 Q1023
cycle: 12

Station Type Date Time Source
LTCK TAF UTC NOAA

Error!

Example: see airport list